createdAt,value
2016-09-14T00:01:19.791Z,17.30
2016-09-14T00:02:20.011Z,17.30
2016-09-14T00:03:20.303Z,17.23
2016-09-14T00:04:20.546Z,17.23
2016-09-14T00:06:22.606Z,17.25
2016-09-14T00:09:19.963Z,17.22
2016-09-14T00:10:17.054Z,17.23
2016-09-14T00:11:17.748Z,17.26
2016-09-14T00:13:17.049Z,17.18
2016-09-14T00:14:14.166Z,17.08
2016-09-14T00:15:17.730Z,17.09
2016-09-14T00:16:19.818Z,17.04
2016-09-14T00:17:17.037Z,17.05
2016-09-14T00:18:17.064Z,17.09
2016-09-14T00:19:17.150Z,17.02
2016-09-14T00:23:22.347Z,17.07
2016-09-14T00:29:21.920Z,17.03
2016-09-14T00:31:17.120Z,16.81
2016-09-14T00:32:20.390Z,16.88
2016-09-14T00:33:17.447Z,16.86
2016-09-14T00:34:22.162Z,16.89
2016-09-14T00:35:22.538Z,16.89
2016-09-14T00:36:21.876Z,16.81
2016-09-14T00:39:17.325Z,16.83
2016-09-14T00:40:20.523Z,16.72
2016-09-14T00:41:19.805Z,16.70
2016-09-14T00:42:17.819Z,16.76
2016-09-14T00:43:16.884Z,16.69
2016-09-14T00:44:17.491Z,16.71
2016-09-14T00:45:19.652Z,16.81
2016-09-14T00:46:12.153Z,16.77
2016-09-14T00:47:13.264Z,16.76
2016-09-14T00:50:17.503Z,16.64
2016-09-14T00:51:19.622Z,16.71
2016-09-14T00:52:19.850Z,16.68
2016-09-14T00:53:22.653Z,16.71
2016-09-14T00:54:19.839Z,16.67
2016-09-14T00:55:22.658Z,16.70
2016-09-14T00:56:20.291Z,16.66
2016-09-14T00:57:22.703Z,16.69
2016-09-14T00:58:19.907Z,16.70
2016-09-14T01:00:13.050Z,16.62
2016-09-14T01:03:21.497Z,16.63
2016-09-14T01:05:22.425Z,16.64
2016-09-14T01:06:21.606Z,16.58
2016-09-14T01:09:22.426Z,16.65
2016-09-14T01:11:22.425Z,16.56
2016-09-14T01:12:20.670Z,16.58
2016-09-14T01:13:22.988Z,16.60
2016-09-14T01:15:19.722Z,16.59
2016-09-14T01:16:22.108Z,16.62
2016-09-14T01:18:19.994Z,16.62
2016-09-14T01:20:19.898Z,16.50
2016-09-14T01:23:20.357Z,16.45
2016-09-14T01:24:20.479Z,16.46
2016-09-14T01:25:21.796Z,16.48
2016-09-14T01:26:17.044Z,16.51
2016-09-14T01:27:20.196Z,16.51
2016-09-14T01:28:17.037Z,16.41
2016-09-14T01:29:22.253Z,16.46
2016-09-14T01:30:20.557Z,16.49
2016-09-14T01:31:18.114Z,16.55
2016-09-14T01:32:20.247Z,16.51
2016-09-14T01:34:23.139Z,16.43
2016-09-14T01:36:17.032Z,16.41
2016-09-14T01:40:20.127Z,16.46
2016-09-14T01:41:49.607Z,16.43
2016-09-14T01:42:16.967Z,16.45
2016-09-14T01:43:20.230Z,16.40
2016-09-14T01:44:17.327Z,16.46
2016-09-14T01:45:17.478Z,16.46
2016-09-14T01:46:19.651Z,16.49
2016-09-14T01:48:19.631Z,16.50
2016-09-14T01:49:21.938Z,16.47
2016-09-14T01:50:17.497Z,16.47
2016-09-14T01:51:25.664Z,16.47
2016-09-14T01:52:20.057Z,16.48
2016-09-14T01:55:20.519Z,16.52
2016-09-14T01:57:20.375Z,16.53
2016-09-14T01:58:19.683Z,16.58
2016-09-14T02:00:39.675Z,16.65
2016-09-14T02:02:22.001Z,16.64
2016-09-14T02:09:22.458Z,16.57
2016-09-14T02:10:16.614Z,16.60
2016-09-14T02:11:18.889Z,16.61
2016-09-14T02:13:17.052Z,16.64
2016-09-14T02:15:17.609Z,16.65
2016-09-14T02:18:19.769Z,16.68
2016-09-14T02:19:17.042Z,16.67
2016-09-14T02:22:20.358Z,16.54
2016-09-14T02:23:51.674Z,16.56
2016-09-14T02:24:19.007Z,16.57
2016-09-14T02:25:20.110Z,16.49
2016-09-14T02:27:19.967Z,16.48
2016-09-14T02:29:21.993Z,16.47
2016-09-14T02:31:19.890Z,16.54
2016-09-14T02:33:20.096Z,16.51
2016-09-14T02:34:17.300Z,16.49
2016-09-14T02:35:17.541Z,16.47
2016-09-14T02:37:20.432Z,16.28
2016-09-14T02:38:19.618Z,16.33
2016-09-14T02:39:17.179Z,16.35
2016-09-14T02:40:22.537Z,16.29
2016-09-14T02:41:21.826Z,16.32
2016-09-14T02:43:20.533Z,16.30
2016-09-14T02:44:21.948Z,16.30
2016-09-14T02:46:19.868Z,16.25
2016-09-14T02:47:20.077Z,16.18
2016-09-14T02:48:20.234Z,16.21
2016-09-14T02:49:20.424Z,16.18
2016-09-14T02:50:16.544Z,16.20
2016-09-14T02:51:16.673Z,16.16
2016-09-14T02:53:17.182Z,16.17
2016-09-14T02:56:19.913Z,16.10
2016-09-14T02:58:20.074Z,16.06
2016-09-14T03:00:16.862Z,16.00
2016-09-14T03:01:17.026Z,15.97
2016-09-14T03:03:20.162Z,15.93
2016-09-14T03:05:19.722Z,15.97
2016-09-14T03:06:17.322Z,16.00
2016-09-14T03:07:23.552Z,16.05
2016-09-14T03:08:16.684Z,16.06
2016-09-14T03:09:16.984Z,16.08
2016-09-14T03:10:22.695Z,16.09
2016-09-14T03:11:19.720Z,15.95
2016-09-14T03:12:19.936Z,15.96
2016-09-14T03:13:20.113Z,15.94
2016-09-14T03:15:19.978Z,15.96
2016-09-14T03:18:17.466Z,15.94
2016-09-14T03:21:22.178Z,15.98
2016-09-14T03:22:20.376Z,15.94
2016-09-14T03:24:18.044Z,15.84
2016-09-14T03:26:20.287Z,15.83
2016-09-14T03:27:17.836Z,15.81
2016-09-14T03:28:22.193Z,15.78
2016-09-14T03:29:20.296Z,15.80
2016-09-14T03:30:22.732Z,15.84
2016-09-14T03:31:22.035Z,15.81
2016-09-14T03:34:22.112Z,15.85
2016-09-14T03:36:22.054Z,15.69
2016-09-14T03:37:17.410Z,15.66
2016-09-14T03:39:20.276Z,15.69
2016-09-14T03:40:23.059Z,15.69
2016-09-14T03:42:17.341Z,15.66
2016-09-14T03:43:16.904Z,15.59
2016-09-14T03:44:17.411Z,15.57
2016-09-14T03:45:22.696Z,15.57
2016-09-14T03:47:20.485Z,15.55
2016-09-14T03:49:20.266Z,15.60
2016-09-14T03:50:17.795Z,15.64
2016-09-14T03:51:20.364Z,15.56
2016-09-14T03:52:20.564Z,15.55
2016-09-14T03:53:19.723Z,15.60
2016-09-14T03:56:17.486Z,15.63
2016-09-14T03:57:19.659Z,15.63
2016-09-14T03:58:16.774Z,15.73
2016-09-14T03:59:20.046Z,15.70
2016-09-14T04:00:17.541Z,15.62
2016-09-14T04:01:20.747Z,15.67
2016-09-14T04:02:16.803Z,15.60
2016-09-14T04:03:17.039Z,15.55
2016-09-14T04:06:19.934Z,15.60
2016-09-14T04:07:22.361Z,15.61
2016-09-14T04:08:17.519Z,15.62
2016-09-14T04:09:19.718Z,15.63
2016-09-14T04:10:22.061Z,15.62
2016-09-14T04:11:22.351Z,15.61
2016-09-14T04:12:19.625Z,15.52
2016-09-14T04:13:16.703Z,15.55
2016-09-14T04:16:17.554Z,15.52
2016-09-14T04:17:18.382Z,15.56
2016-09-14T04:19:22.310Z,15.55
2016-09-14T04:20:22.682Z,15.46
2016-09-14T04:21:22.381Z,15.56
2016-09-14T04:22:20.541Z,15.41
2016-09-14T04:24:21.715Z,15.44
2016-09-14T04:25:29.404Z,15.43
2016-09-14T04:26:16.852Z,15.43
2016-09-14T04:29:20.043Z,15.48
2016-09-14T04:31:22.155Z,15.38
2016-09-14T04:35:22.214Z,15.20
2016-09-14T04:36:22.378Z,15.30
2016-09-14T04:37:20.566Z,15.31
2016-09-14T04:38:19.777Z,15.34
2016-09-14T04:39:20.011Z,15.34
2016-09-14T04:40:22.676Z,15.38
2016-09-14T04:41:22.082Z,15.41
2016-09-14T04:42:17.773Z,15.40
2016-09-14T04:43:22.080Z,15.37
2016-09-14T04:44:20.327Z,15.29
2016-09-14T04:46:20.149Z,15.21
2016-09-14T04:47:12.123Z,15.17
2016-09-14T04:48:22.218Z,15.20
2016-09-14T04:50:20.060Z,15.20
2016-09-14T04:51:22.441Z,15.23
2016-09-14T04:57:16.984Z,15.26
2016-09-14T04:58:22.307Z,15.30
2016-09-14T05:00:22.242Z,15.32
2016-09-14T05:01:20.414Z,15.26
2016-09-14T05:02:19.922Z,15.28
2016-09-14T05:03:20.021Z,15.27
2016-09-14T05:04:22.378Z,15.29
2016-09-14T05:08:21.051Z,15.31
2016-09-14T05:09:22.732Z,15.31
2016-09-14T05:10:22.676Z,15.37
2016-09-14T05:11:20.413Z,15.40
2016-09-14T05:12:17.013Z,15.45
2016-09-14T05:14:21.937Z,15.41
2016-09-14T05:15:20.131Z,15.30
2016-09-14T05:18:12.120Z,15.34
2016-09-14T05:19:22.519Z,15.32
2016-09-14T05:20:19.719Z,15.36
2016-09-14T05:22:20.488Z,15.28
2016-09-14T05:23:19.635Z,15.30
2016-09-14T05:24:13.030Z,15.31
2016-09-14T05:25:22.366Z,15.37
2016-09-14T05:26:20.472Z,15.41
2016-09-14T05:27:12.709Z,15.48
2016-09-14T05:28:19.827Z,15.49
2016-09-14T05:29:13.016Z,15.44
2016-09-14T05:31:11.747Z,15.31
2016-09-14T05:32:12.299Z,15.31
2016-09-14T05:33:22.560Z,15.29
2016-09-14T05:35:20.437Z,15.30
2016-09-14T05:36:12.119Z,15.32
2016-09-14T05:39:12.925Z,15.45
2016-09-14T05:41:22.189Z,15.42
2016-09-14T05:43:20.020Z,15.41
2016-09-14T05:44:18.115Z,15.44
2016-09-14T05:47:18.672Z,15.46
2016-09-14T05:48:19.837Z,15.45
2016-09-14T05:50:24.893Z,15.60
2016-09-14T05:52:12.650Z,15.58
2016-09-14T05:53:19.748Z,15.62
2016-09-14T05:55:22.731Z,15.73
2016-09-14T05:56:22.293Z,15.73
2016-09-14T05:57:19.790Z,15.76
2016-09-14T05:58:17.033Z,15.76
2016-09-14T05:59:20.329Z,15.75
2016-09-14T06:00:13.325Z,15.78
2016-09-14T06:01:13.480Z,15.75
2016-09-14T06:02:21.783Z,15.81
2016-09-14T06:03:19.972Z,15.84
2016-09-14T06:04:13.162Z,15.87
2016-09-14T06:05:13.119Z,15.94
2016-09-14T06:07:19.917Z,15.97
2016-09-14T06:08:20.100Z,15.96
2016-09-14T06:09:19.324Z,15.98
2016-09-14T06:11:19.569Z,15.96
2016-09-14T06:12:19.734Z,15.98
2016-09-14T06:13:11.885Z,16.01
2016-09-14T06:14:50.943Z,16.00
2016-09-14T06:15:19.071Z,16.09
2016-09-14T06:16:22.323Z,16.06
2016-09-14T06:17:13.565Z,16.08
2016-09-14T06:18:20.749Z,16.16
2016-09-14T06:19:19.460Z,16.17
2016-09-14T06:20:19.609Z,16.25
2016-09-14T06:22:17.779Z,16.35
2016-09-14T06:23:18.317Z,16.37
2016-09-14T06:25:12.361Z,16.33
2016-09-14T06:26:20.502Z,16.41
2016-09-14T06:28:22.474Z,16.47
2016-09-14T06:29:11.709Z,16.51
2016-09-14T06:31:19.872Z,16.56
2016-09-14T06:32:20.126Z,16.63
2016-09-14T06:33:21.345Z,16.67
2016-09-14T06:35:20.176Z,16.76
2016-09-14T06:36:19.805Z,16.80
2016-09-14T06:37:17.954Z,16.83
2016-09-14T06:38:21.238Z,16.91
2016-09-14T06:39:17.306Z,16.91
2016-09-14T06:40:20.434Z,16.96
2016-09-14T06:45:19.252Z,17.17
2016-09-14T06:46:21.403Z,17.23
2016-09-14T06:47:20.586Z,17.25
2016-09-14T06:48:21.893Z,17.27
2016-09-14T06:49:17.476Z,17.33
2016-09-14T06:50:19.629Z,17.38
2016-09-14T06:51:20.239Z,17.41
2016-09-14T06:52:20.478Z,17.40
2016-09-14T06:53:12.398Z,17.42
2016-09-14T06:54:14.553Z,17.45
2016-09-14T06:55:19.807Z,17.51
2016-09-14T06:56:22.178Z,17.56
2016-09-14T06:57:22.611Z,17.62
2016-09-14T06:58:20.784Z,17.65
2016-09-14T06:59:19.962Z,17.69
2016-09-14T07:01:11.921Z,17.79
2016-09-14T07:04:19.759Z,17.86
2016-09-14T07:06:20.453Z,18.00
2016-09-14T07:07:17.416Z,18.04
2016-09-14T07:09:19.711Z,18.00
2016-09-14T07:14:20.365Z,18.14
2016-09-14T07:15:19.625Z,18.21
2016-09-14T07:17:20.470Z,18.27
2016-09-14T07:18:38.780Z,18.30
2016-09-14T07:19:08.193Z,18.36
2016-09-14T07:20:12.948Z,18.38
2016-09-14T07:21:12.694Z,18.46
2016-09-14T07:22:11.839Z,18.49
2016-09-14T07:23:12.217Z,18.53
2016-09-14T07:24:20.120Z,18.58
2016-09-14T07:25:12.460Z,18.64
2016-09-14T07:26:12.266Z,18.64
2016-09-14T07:27:21.873Z,18.69
2016-09-14T07:31:12.079Z,19.14
2016-09-14T07:31:33.001Z,19.13
2016-09-14T07:31:38.675Z,19.13
2016-09-14T07:32:22.919Z,19.04
2016-09-14T07:33:22.897Z,19.02
2016-09-14T07:34:12.554Z,18.99
2016-09-14T07:35:11.736Z,19.00
2016-09-14T07:36:12.429Z,19.01
2016-09-14T07:37:11.998Z,19.01
2016-09-14T07:38:12.349Z,19.03
2016-09-14T07:39:12.834Z,19.02
2016-09-14T07:40:11.769Z,19.07
2016-09-14T07:41:12.409Z,19.01
2016-09-14T07:42:12.016Z,19.07
2016-09-14T07:43:12.318Z,19.10
2016-09-14T07:45:14.340Z,19.13
2016-09-14T07:46:12.758Z,19.20
2016-09-14T07:47:12.855Z,19.30
2016-09-14T07:48:12.776Z,19.38
2016-09-14T07:50:15.957Z,19.47
2016-09-14T07:51:12.477Z,19.51
2016-09-14T07:52:12.724Z,19.51
2016-09-14T07:53:11.815Z,19.48
2016-09-14T07:54:12.661Z,19.42
2016-09-14T07:55:11.562Z,19.35
2016-09-14T07:56:12.394Z,19.31
2016-09-14T07:57:14.427Z,19.32
2016-09-14T07:58:14.470Z,19.37
2016-09-14T07:59:21.228Z,19.40
2016-09-14T08:00:11.333Z,19.43
2016-09-14T08:01:14.736Z,19.50
2016-09-14T08:02:12.281Z,19.54
2016-09-14T08:03:11.654Z,19.48
2016-09-14T08:04:08.060Z,19.54
2016-09-14T08:05:08.580Z,19.58
2016-09-14T08:06:10.846Z,19.57
2016-09-14T08:07:09.820Z,19.57
2016-09-14T08:08:09.017Z,19.63
2016-09-14T08:09:12.964Z,19.66
2016-09-14T08:10:13.658Z,19.67
2016-09-14T08:11:12.334Z,19.75
2016-09-14T08:12:12.693Z,19.74
2016-09-14T08:13:12.431Z,19.73
2016-09-14T08:14:11.525Z,19.76
2016-09-14T08:15:12.557Z,19.75
2016-09-14T08:16:16.931Z,19.77
2016-09-14T08:17:12.112Z,19.82
2016-09-14T08:18:12.651Z,19.86
2016-09-14T08:19:21.659Z,19.89
2016-09-14T08:20:10.971Z,19.93
2016-09-14T08:21:12.964Z,19.99
2016-09-14T08:22:13.187Z,19.99
2016-09-14T08:23:12.580Z,20.00
2016-09-14T08:24:17.969Z,19.97
2016-09-14T08:25:17.913Z,19.99
2016-09-14T08:26:20.814Z,19.99
2016-09-14T08:27:14.783Z,20.00
2016-09-14T08:28:12.943Z,20.01
2016-09-14T08:29:11.925Z,20.10
2016-09-14T08:30:13.227Z,20.07
2016-09-14T08:31:11.843Z,20.22
2016-09-14T08:32:11.926Z,20.29
2016-09-14T08:33:13.387Z,20.27
2016-09-14T08:34:10.328Z,20.20
2016-09-14T08:35:12.006Z,20.20
2016-09-14T08:36:12.238Z,20.24
2016-09-14T08:37:12.257Z,20.28
2016-09-14T08:38:17.625Z,20.37
2016-09-14T08:39:17.169Z,20.39
2016-09-14T08:40:27.473Z,20.38
2016-09-14T08:42:12.530Z,20.58
2016-09-14T08:43:20.324Z,20.49
2016-09-14T08:44:12.731Z,20.37
2016-09-14T08:45:14.681Z,20.38
2016-09-14T08:46:12.297Z,20.40
2016-09-14T08:49:21.357Z,20.59
2016-09-14T08:50:20.912Z,20.61
2016-09-14T08:51:19.469Z,20.62
2016-09-14T08:53:17.941Z,20.68
2016-09-14T08:54:17.970Z,20.65
2016-09-14T08:55:22.516Z,20.60
2016-09-14T08:56:13.457Z,20.64
2016-09-14T08:57:22.655Z,20.81
2016-09-14T09:00:17.017Z,21.07
2016-09-14T09:01:13.246Z,21.04
2016-09-14T09:02:18.456Z,21.03
2016-09-14T09:03:17.801Z,20.98
2016-09-14T09:04:22.570Z,20.90
2016-09-14T09:05:16.921Z,20.86
2016-09-14T09:09:13.485Z,20.85
2016-09-14T09:11:18.735Z,20.85
2016-09-14T09:13:22.463Z,20.94
2016-09-14T09:16:15.463Z,21.16
2016-09-14T09:17:17.887Z,21.14
2016-09-14T09:18:20.977Z,21.09
2016-09-14T09:19:25.005Z,21.11
2016-09-14T09:21:26.843Z,21.33
2016-09-14T09:24:11.244Z,21.26
2016-09-14T09:25:18.800Z,21.23
2016-09-14T09:26:11.719Z,21.32
2016-09-14T09:27:10.222Z,21.38
2016-09-14T09:28:12.938Z,21.44
2016-09-14T09:29:11.953Z,21.60
2016-09-14T09:30:12.419Z,21.85
2016-09-14T09:31:13.078Z,21.93
2016-09-14T09:32:14.974Z,21.97
2016-09-14T09:33:12.753Z,21.87
2016-09-14T09:34:12.599Z,21.86
2016-09-14T09:35:22.197Z,21.82
2016-09-14T09:36:25.956Z,21.75
2016-09-14T09:37:13.904Z,21.70
2016-09-14T09:38:12.729Z,21.65
2016-09-14T09:39:11.998Z,21.62
2016-09-14T09:40:12.313Z,21.67
2016-09-14T09:41:12.955Z,21.73
2016-09-14T09:42:13.011Z,21.69
2016-09-14T09:43:11.681Z,21.67
2016-09-14T09:44:12.699Z,21.66
2016-09-14T09:45:20.359Z,21.77
2016-09-14T09:46:13.440Z,21.77
2016-09-14T09:47:11.994Z,21.85
2016-09-14T09:48:12.212Z,21.91
2016-09-14T09:49:21.358Z,22.03
2016-09-14T09:50:17.985Z,22.20
2016-09-14T09:51:12.981Z,22.13
2016-09-14T09:52:13.570Z,22.13
2016-09-14T09:53:13.514Z,22.15
2016-09-14T09:54:12.470Z,22.22
2016-09-14T09:55:12.138Z,22.26
2016-09-14T09:56:22.245Z,22.33
2016-09-14T09:57:11.725Z,22.35
2016-09-14T09:58:12.823Z,22.31
2016-09-14T09:59:12.743Z,22.41
2016-09-14T10:00:16.889Z,22.21
2016-09-14T10:01:13.189Z,22.30
2016-09-14T10:02:11.321Z,22.34
2016-09-14T10:03:11.405Z,22.29
2016-09-14T10:04:21.148Z,22.20
2016-09-14T10:05:12.739Z,22.22
2016-09-14T10:06:12.218Z,22.23
2016-09-14T10:07:12.584Z,22.15
2016-09-14T10:08:16.945Z,22.12
2016-09-14T10:09:11.600Z,22.13
2016-09-14T10:10:17.629Z,22.28
2016-09-14T10:11:11.624Z,22.30
2016-09-14T10:12:11.998Z,22.35
2016-09-14T10:13:12.629Z,22.48
2016-09-14T10:14:12.915Z,22.52
2016-09-14T10:15:11.887Z,22.49
2016-09-14T10:16:11.807Z,22.48
2016-09-14T10:17:21.506Z,22.62
2016-09-14T10:18:11.275Z,22.62
2016-09-14T10:19:12.631Z,22.61
2016-09-14T10:20:12.852Z,22.51
2016-09-14T10:21:21.116Z,22.49
2016-09-14T10:22:12.440Z,22.49
2016-09-14T10:23:14.242Z,22.59
2016-09-14T10:24:12.257Z,22.67
2016-09-14T10:25:12.583Z,22.72
2016-09-14T10:26:12.148Z,22.72
2016-09-14T10:27:12.077Z,22.79
2016-09-14T10:28:18.850Z,22.81
2016-09-14T10:30:12.280Z,22.89
2016-09-14T10:31:12.404Z,22.86
2016-09-14T10:32:21.877Z,22.81
2016-09-14T10:33:20.664Z,22.84
2016-09-14T10:34:13.293Z,22.84
2016-09-14T10:35:12.845Z,22.80
2016-09-14T10:36:12.191Z,22.84
2016-09-14T10:37:17.476Z,22.93
2016-09-14T10:38:13.703Z,23.02
2016-09-14T10:39:12.628Z,22.96
2016-09-14T10:40:12.455Z,22.97
2016-09-14T10:41:12.314Z,23.12
2016-09-14T10:42:26.411Z,23.04
2016-09-14T10:43:12.341Z,23.03
2016-09-14T10:44:12.970Z,22.92
2016-09-14T10:45:11.528Z,22.91
2016-09-14T10:46:12.637Z,22.94
2016-09-14T10:47:11.718Z,23.03
2016-09-14T10:48:08.448Z,23.14
2016-09-14T10:49:21.440Z,23.08
2016-09-14T10:50:21.945Z,23.16
2016-09-14T10:51:12.275Z,23.19
2016-09-14T10:52:12.958Z,23.18
2016-09-14T10:53:21.109Z,23.19
2016-09-14T10:54:25.999Z,23.17
2016-09-14T10:55:14.448Z,23.19
2016-09-14T10:56:12.052Z,23.16
2016-09-14T10:57:12.741Z,23.22
2016-09-14T10:58:12.884Z,23.26
2016-09-14T10:59:12.184Z,23.31
2016-09-14T11:00:12.118Z,23.38
2016-09-14T11:01:21.658Z,23.41
2016-09-14T11:02:12.766Z,23.52
2016-09-14T11:03:12.131Z,23.40
2016-09-14T11:04:11.087Z,23.36
2016-09-14T11:05:17.177Z,23.31
2016-09-14T11:06:12.578Z,23.23
2016-09-14T11:07:11.883Z,23.28
2016-09-14T11:08:10.023Z,23.25
2016-09-14T11:09:21.594Z,23.29
2016-09-14T11:10:12.934Z,23.26
2016-09-14T11:11:13.331Z,23.44
2016-09-14T11:12:12.687Z,23.42
2016-09-14T11:14:12.696Z,23.57
2016-09-14T11:15:17.696Z,23.57
2016-09-14T11:16:14.136Z,23.66
2016-09-14T11:17:12.062Z,23.65
2016-09-14T11:18:11.558Z,23.54
2016-09-14T11:19:12.179Z,23.46
2016-09-14T11:20:11.487Z,23.50
2016-09-14T11:21:11.439Z,23.44
2016-09-14T11:23:12.899Z,23.46
2016-09-14T11:24:12.000Z,23.44
2016-09-14T11:25:12.932Z,23.63
2016-09-14T11:26:12.472Z,23.69
2016-09-14T11:27:13.063Z,23.79
2016-09-14T11:28:11.559Z,23.73
2016-09-14T11:29:12.758Z,23.69
2016-09-14T11:30:11.297Z,23.83
2016-09-14T11:31:12.100Z,23.88
2016-09-14T11:32:11.754Z,23.89
2016-09-14T11:33:12.524Z,23.99
2016-09-14T11:34:12.294Z,24.06
2016-09-14T11:35:12.766Z,24.09
2016-09-14T11:36:12.268Z,24.09
2016-09-14T11:37:11.797Z,24.10
2016-09-14T11:38:12.476Z,24.02
2016-09-14T11:39:12.330Z,23.96
2016-09-14T11:40:12.181Z,23.93
2016-09-14T11:41:12.989Z,24.00
2016-09-14T11:42:17.539Z,24.06
2016-09-14T11:43:11.827Z,24.10
2016-09-14T11:44:13.194Z,24.06
2016-09-14T11:45:11.893Z,24.16
2016-09-14T11:46:12.004Z,24.15
2016-09-14T11:47:12.158Z,24.13
2016-09-14T11:48:15.124Z,24.10
2016-09-14T11:49:11.907Z,24.10
2016-09-14T11:50:17.080Z,24.06
2016-09-14T11:51:12.686Z,23.97
2016-09-14T11:52:15.970Z,23.98
2016-09-14T11:53:13.138Z,24.03
2016-09-14T11:54:11.541Z,24.17
2016-09-14T11:55:11.443Z,24.24
2016-09-14T11:56:12.228Z,24.16
2016-09-14T11:57:13.701Z,24.19
2016-09-14T11:58:11.944Z,24.25
2016-09-14T11:59:12.206Z,24.20
2016-09-14T12:00:11.629Z,24.22
2016-09-14T12:01:11.833Z,24.21
2016-09-14T12:02:14.352Z,24.24
2016-09-14T12:03:11.596Z,24.41
2016-09-14T12:04:12.438Z,24.40
2016-09-14T12:05:14.199Z,24.41
2016-09-14T12:06:12.203Z,24.53
2016-09-14T12:07:13.421Z,24.51
2016-09-14T12:08:23.056Z,24.48
2016-09-14T12:09:12.736Z,24.61
2016-09-14T12:10:12.946Z,24.49
2016-09-14T12:11:11.623Z,24.52
2016-09-14T12:12:11.643Z,24.64
2016-09-14T12:13:11.617Z,24.61
2016-09-14T12:14:11.943Z,24.55
2016-09-14T12:15:13.468Z,24.51
2016-09-14T12:16:20.924Z,24.42
2016-09-14T12:17:15.317Z,24.42
2016-09-14T12:18:11.384Z,24.42
2016-09-14T12:19:12.542Z,24.37
2016-09-14T12:20:08.490Z,24.33
2016-09-14T12:21:12.126Z,24.36
2016-09-14T12:22:11.606Z,24.35
2016-09-14T12:23:12.046Z,24.49
2016-09-14T12:24:12.303Z,24.59
2016-09-14T12:25:11.593Z,24.56
2016-09-14T12:26:12.444Z,24.59
2016-09-14T12:27:11.919Z,24.60
2016-09-14T12:28:13.217Z,24.52
2016-09-14T12:29:11.720Z,24.73
2016-09-14T12:30:13.777Z,24.84
2016-09-14T12:31:12.775Z,24.80
2016-09-14T12:32:12.430Z,24.89
2016-09-14T12:33:09.288Z,24.91
2016-09-14T12:34:12.091Z,24.84
2016-09-14T12:35:12.480Z,24.79
2016-09-14T12:36:11.991Z,24.86
2016-09-14T12:37:12.147Z,24.92
2016-09-14T12:38:11.668Z,24.95
2016-09-14T12:39:12.229Z,24.93
2016-09-14T12:40:10.789Z,24.85
2016-09-14T12:41:09.356Z,24.88
2016-09-14T12:42:12.608Z,24.91
2016-09-14T12:43:11.815Z,24.97
2016-09-14T12:44:12.057Z,25.01
2016-09-14T12:45:11.740Z,24.99
2016-09-14T12:46:12.438Z,25.06
2016-09-14T12:47:12.665Z,25.08
2016-09-14T12:48:11.386Z,25.06
2016-09-14T12:49:11.995Z,25.02
2016-09-14T12:50:11.859Z,25.05
2016-09-14T12:51:11.948Z,25.01
2016-09-14T12:52:12.121Z,25.09
2016-09-14T12:53:11.395Z,25.08
2016-09-14T12:54:16.496Z,25.20
2016-09-14T12:55:12.948Z,25.34
2016-09-14T12:56:13.871Z,25.46
2016-09-14T12:57:11.533Z,25.40
2016-09-14T12:58:11.913Z,25.31
2016-09-14T12:59:12.018Z,25.45
2016-09-14T13:00:12.015Z,25.44
2016-09-14T13:01:12.292Z,25.39
2016-09-14T13:02:11.534Z,25.52
2016-09-14T13:03:12.336Z,25.55
2016-09-14T13:04:11.925Z,25.59
2016-09-14T13:05:11.979Z,25.49
2016-09-14T13:06:11.673Z,25.64
2016-09-14T13:07:12.982Z,25.66
2016-09-14T13:08:12.847Z,25.58
2016-09-14T13:09:17.526Z,25.53
2016-09-14T13:10:12.031Z,25.45
2016-09-14T13:11:12.599Z,25.52
2016-09-14T13:12:11.559Z,25.48
2016-09-14T13:13:12.547Z,25.48
2016-09-14T13:14:11.559Z,25.53
2016-09-14T13:15:07.863Z,25.59
2016-09-14T13:16:10.528Z,25.60
2016-09-14T13:17:11.717Z,25.77
2016-09-14T13:18:12.697Z,25.79
2016-09-14T13:19:11.882Z,25.78
2016-09-14T13:20:09.838Z,25.85
2016-09-14T13:21:11.981Z,25.76
2016-09-14T13:22:12.348Z,25.78
2016-09-14T13:23:12.484Z,25.72
2016-09-14T13:24:11.933Z,25.68
2016-09-14T13:25:11.705Z,25.64
2016-09-14T13:26:11.727Z,25.57
2016-09-14T13:27:11.682Z,25.51
2016-09-14T13:28:16.562Z,25.42
2016-09-14T13:29:11.628Z,25.31
2016-09-14T13:30:11.716Z,25.29
2016-09-14T13:31:12.856Z,25.36
2016-09-14T13:32:12.002Z,25.36
2016-09-14T13:33:13.105Z,25.23
2016-09-14T13:34:11.740Z,25.22
2016-09-14T13:35:11.954Z,25.17
2016-09-14T13:36:12.476Z,25.21
2016-09-14T13:37:12.209Z,25.22
2016-09-14T13:38:11.537Z,25.37
2016-09-14T13:39:09.557Z,25.35
2016-09-14T13:40:11.819Z,25.33
2016-09-14T13:41:11.675Z,25.24
2016-09-14T13:42:12.570Z,25.21
2016-09-14T13:43:12.765Z,25.24
2016-09-14T13:44:12.809Z,25.21
2016-09-14T13:45:17.129Z,25.19
2016-09-14T13:46:12.674Z,25.32
2016-09-14T13:47:10.020Z,25.39
2016-09-14T13:48:11.903Z,25.30
2016-09-14T13:49:12.154Z,25.29
2016-09-14T13:50:11.993Z,25.30
2016-09-14T13:51:11.997Z,25.25
2016-09-14T13:52:14.765Z,25.31
2016-09-14T13:53:12.110Z,25.34
2016-09-14T13:54:12.214Z,25.24
2016-09-14T13:55:12.387Z,25.14
2016-09-14T13:56:13.106Z,25.13
2016-09-14T13:57:14.128Z,25.14
2016-09-14T13:58:12.391Z,25.03
2016-09-14T13:59:10.629Z,25.02
2016-09-14T14:00:12.051Z,25.04
2016-09-14T14:01:12.074Z,25.05
2016-09-14T14:02:10.548Z,25.08
2016-09-14T14:03:11.909Z,25.14
2016-09-14T14:04:16.578Z,25.17
2016-09-14T14:05:12.051Z,25.18
2016-09-14T14:06:10.369Z,25.16
2016-09-14T14:07:16.837Z,25.18
2016-09-14T14:08:13.315Z,25.14
2016-09-14T14:09:12.004Z,25.12
2016-09-14T14:10:11.720Z,25.14
2016-09-14T14:11:12.862Z,25.12
2016-09-14T14:12:11.837Z,25.13
2016-09-14T14:13:11.929Z,25.14
2016-09-14T14:14:12.303Z,25.12
2016-09-14T14:15:12.232Z,25.15
2016-09-14T14:16:12.618Z,25.20
2016-09-14T14:17:11.644Z,25.22
2016-09-14T14:18:11.448Z,25.30
2016-09-14T14:19:08.766Z,25.38
2016-09-14T14:20:12.019Z,25.35
2016-09-14T14:21:11.422Z,25.25
2016-09-14T14:22:11.876Z,25.21
2016-09-14T14:23:12.162Z,25.26
2016-09-14T14:24:12.238Z,25.25
2016-09-14T14:25:10.094Z,25.29
2016-09-14T14:26:13.282Z,25.28
2016-09-14T14:27:11.936Z,25.30
2016-09-14T14:28:17.520Z,25.34
2016-09-14T14:29:12.594Z,25.25
2016-09-14T14:30:11.956Z,25.27
2016-09-14T14:31:11.643Z,25.28
2016-09-14T14:32:11.971Z,25.25
2016-09-14T14:33:11.833Z,25.29
2016-09-14T14:34:12.176Z,25.28
2016-09-14T14:35:10.449Z,25.30
2016-09-14T14:36:14.057Z,25.35
2016-09-14T14:37:12.205Z,25.35
2016-09-14T14:38:11.380Z,25.36
2016-09-14T14:39:12.829Z,25.30
2016-09-14T14:40:13.854Z,25.29
2016-09-14T14:41:17.298Z,25.29
2016-09-14T14:42:27.725Z,25.27
2016-09-14T14:43:13.693Z,25.33
2016-09-14T14:44:11.794Z,25.28
2016-09-14T14:45:11.649Z,25.27
2016-09-14T14:46:12.713Z,25.27
2016-09-14T14:47:11.726Z,25.30
2016-09-14T14:48:12.673Z,25.18
2016-09-14T14:49:09.957Z,25.31
2016-09-14T14:50:11.690Z,25.33
2016-09-14T14:51:12.083Z,25.25
2016-09-14T14:52:10.490Z,25.23
2016-09-14T14:53:12.956Z,25.19
2016-09-14T14:54:15.846Z,25.20
2016-09-14T14:55:12.318Z,25.26
2016-09-14T14:56:12.863Z,25.22
2016-09-14T14:57:11.700Z,25.28
2016-09-14T14:58:12.404Z,25.25
2016-09-14T14:59:11.631Z,25.29
2016-09-14T15:00:11.687Z,25.35
2016-09-14T15:01:13.419Z,25.35
2016-09-14T15:02:11.983Z,25.33
2016-09-14T15:03:12.757Z,25.28
2016-09-14T15:04:12.626Z,25.34
2016-09-14T15:05:12.013Z,25.36
2016-09-14T15:06:17.657Z,25.35
2016-09-14T15:07:11.610Z,25.40
2016-09-14T15:08:12.119Z,25.36
2016-09-14T15:09:14.264Z,25.35
2016-09-14T15:10:13.742Z,25.35
2016-09-14T15:11:12.004Z,25.29
2016-09-14T15:12:12.086Z,25.29
2016-09-14T15:13:12.321Z,25.30
2016-09-14T15:14:10.329Z,25.30
2016-09-14T15:15:12.664Z,25.35
2016-09-14T15:16:12.572Z,25.40
2016-09-14T15:17:11.651Z,25.31
2016-09-14T15:18:12.318Z,25.29
2016-09-14T15:19:12.341Z,25.33
2016-09-14T15:20:11.664Z,25.26
2016-09-14T15:21:12.225Z,25.33
2016-09-14T15:22:11.968Z,25.35
2016-09-14T15:23:12.601Z,25.32
2016-09-14T15:24:09.170Z,25.35
2016-09-14T15:25:10.816Z,25.33
2016-09-14T15:26:12.279Z,25.32
2016-09-14T15:27:11.927Z,25.33
2016-09-14T15:28:12.507Z,25.34
2016-09-14T15:29:11.713Z,25.25
2016-09-14T15:30:12.477Z,25.26
2016-09-14T15:31:12.239Z,25.26
2016-09-14T15:32:17.023Z,25.26
2016-09-14T15:33:11.694Z,25.22
2016-09-14T15:34:22.131Z,25.19
2016-09-14T15:35:12.563Z,25.17
2016-09-14T15:36:12.122Z,25.13